sensor_id;sensor_type;location;lat;lon;timestamp;P1;durP1;ratioP1;P2;durP2;ratioP2
59145;SDS011;44928;53.074;6.646;2023-03-01T00:02:04;24.38;;;15.60;;
59145;SDS011;44928;53.074;6.646;2023-03-01T00:04:30;25.67;;;16.73;;
59145;SDS011;44928;53.074;6.646;2023-03-01T00:06:56;26.17;;;17.08;;
59145;SDS011;44928;53.074;6.646;2023-03-01T00:09:22;29.38;;;17.17;;
59145;SDS011;44928;53.074;6.646;2023-03-01T00:11:47;22.98;;;15.50;;
59145;SDS011;44928;53.074;6.646;2023-03-01T00:14:13;28.20;;;16.40;;
59145;SDS011;44928;53.074;6.646;2023-03-01T00:16:42;24.27;;;17.08;;
59145;SDS011;44928;53.074;6.646;2023-03-01T00:19:13;24.15;;;15.82;;
59145;SDS011;44928;53.074;6.646;2023-03-01T00:21:41;22.00;;;14.20;;
59145;SDS011;44928;53.074;6.646;2023-03-01T00:24:07;23.90;;;14.98;;
59145;SDS011;44928;53.074;6.646;2023-03-01T00:26:33;22.95;;;15.07;;
59145;SDS011;44928;53.074;6.646;2023-03-01T00:28:59;22.23;;;14.75;;
59145;SDS011;44928;53.074;6.646;2023-03-01T00:31:26;20.83;;;14.88;;
59145;SDS011;44928;53.074;6.646;2023-03-01T00:34:03;22.73;;;14.05;;
59145;SDS011;44928;53.074;6.646;2023-03-01T00:36:34;21.70;;;14.20;;
59145;SDS011;44928;53.074;6.646;2023-03-01T00:39:01;25.35;;;14.63;;
59145;SDS011;44928;53.074;6.646;2023-03-01T00:41:29;37.17;;;14.48;;
59145;SDS011;44928;53.074;6.646;2023-03-01T00:43:55;32.50;;;13.15;;
59145;SDS011;44928;53.074;6.646;2023-03-01T00:46:22;38.50;;;13.38;;
59145;SDS011;44928;53.074;6.646;2023-03-01T00:48:49;61.80;;;13.35;;
59145;SDS011;44928;53.074;6.646;2023-03-01T00:53:45;38.97;;;13.35;;
59145;SDS011;44928;53.074;6.646;2023-03-01T00:56:12;34.97;;;10.32;;
59145;SDS011;44928;53.074;6.646;2023-03-01T00:58:39;62.08;;;11.85;;
59145;SDS011;44928;53.074;6.646;2023-03-01T01:01:09;44.03;;;12.23;;
59145;SDS011;44928;53.074;6.646;2023-03-01T01:03:52;61.42;;;14.52;;
59145;SDS011;44928;53.074;6.646;2023-03-01T01:06:33;33.92;;;13.10;;
59145;SDS011;44928;53.074;6.646;2023-03-01T01:09:02;33.95;;;11.70;;
59145;SDS011;44928;53.074;6.646;2023-03-01T01:11:29;23.42;;;11.05;;
59145;SDS011;44928;53.074;6.646;2023-03-01T01:13:55;18.27;;;11.70;;
59145;SDS011;44928;53.074;6.646;2023-03-01T01:16:22;16.42;;;11.48;;
59145;SDS011;44928;53.074;6.646;2023-03-01T01:18:50;16.77;;;11.30;;
59145;SDS011;44928;53.074;6.646;2023-03-01T01:21:20;15.32;;;11.05;;
59145;SDS011;44928;53.074;6.646;2023-03-01T01:23:48;14.52;;;9.73;;
59145;SDS011;44928;53.074;6.646;2023-03-01T01:26:16;16.10;;;11.10;;
59145;SDS011;44928;53.074;6.646;2023-03-01T01:28:46;14.95;;;10.23;;
59145;SDS011;44928;53.074;6.646;2023-03-01T01:31:12;15.45;;;10.00;;
59145;SDS011;44928;53.074;6.646;2023-03-01T01:33:38;16.60;;;11.35;;
59145;SDS011;44928;53.074;6.646;2023-03-01T01:36:05;15.70;;;10.65;;
59145;SDS011;44928;53.074;6.646;2023-03-01T01:38:31;14.57;;;9.90;;
59145;SDS011;44928;53.074;6.646;2023-03-01T01:40:58;14.38;;;9.20;;
59145;SDS011;44928;53.074;6.646;2023-03-01T01:43:25;13.77;;;9.27;;
59145;SDS011;44928;53.074;6.646;2023-03-01T01:45:58;11.60;;;7.57;;
59145;SDS011;44928;53.074;6.646;2023-03-01T01:48:59;11.82;;;7.45;;
59145;SDS011;44928;53.074;6.646;2023-03-01T01:51:29;12.88;;;8.65;;
59145;SDS011;44928;53.074;6.646;2023-03-01T01:54:06;13.23;;;9.05;;
59145;SDS011;44928;53.074;6.646;2023-03-01T01:56:37;14.07;;;8.45;;
59145;SDS011;44928;53.074;6.646;2023-03-01T01:59:05;17.30;;;9.90;;
59145;SDS011;44928;53.074;6.646;2023-03-01T02:01:31;17.65;;;10.52;;
59145;SDS011;44928;53.074;6.646;2023-03-01T02:03:57;39.25;;;12.75;;
59145;SDS011;44928;53.074;6.646;2023-03-01T02:06:26;35.95;;;12.15;;
59145;SDS011;44928;53.074;6.646;2023-03-01T02:08:59;58.25;;;11.95;;
59145;SDS011;44928;53.074;6.646;2023-03-01T02:11:29;24.40;;;11.67;;
59145;SDS011;44928;53.074;6.646;2023-03-01T02:13:56;32.97;;;12.00;;
59145;SDS011;44928;53.074;6.646;2023-03-01T02:16:22;15.38;;;10.80;;
59145;SDS011;44928;53.074;6.646;2023-03-01T02:18:48;19.27;;;10.77;;
59145;SDS011;44928;53.074;6.646;2023-03-01T02:23:40;24.83;;;11.20;;
59145;SDS011;44928;53.074;6.646;2023-03-01T02:28:54;42.40;;;10.35;;
59145;SDS011;44928;53.074;6.646;2023-03-01T02:31:20;19.58;;;10.30;;
59145;SDS011;44928;53.074;6.646;2023-03-01T02:34:06;15.30;;;9.38;;
59145;SDS011;44928;53.074;6.646;2023-03-01T02:36:35;18.17;;;9.73;;
59145;SDS011;44928;53.074;6.646;2023-03-01T02:39:04;16.13;;;10.40;;
59145;SDS011;44928;53.074;6.646;2023-03-01T02:41:36;17.58;;;9.52;;
59145;SDS011;44928;53.074;6.646;2023-03-01T02:44:03;56.50;;;10.55;;
59145;SDS011;44928;53.074;6.646;2023-03-01T02:46:30;38.70;;;10.48;;
59145;SDS011;44928;53.074;6.646;2023-03-01T02:48:57;16.95;;;10.57;;
59145;SDS011;44928;53.074;6.646;2023-03-01T02:59:06;41.65;;;11.68;;
59145;SDS011;44928;53.074;6.646;2023-03-01T03:01:32;37.58;;;10.98;;
59145;SDS011;44928;53.074;6.646;2023-03-01T03:04:08;31.08;;;12.00;;
59145;SDS011;44928;53.074;6.646;2023-03-01T03:06:42;35.50;;;12.52;;
59145;SDS011;44928;53.074;6.646;2023-03-01T03:09:09;38.80;;;11.65;;
59145;SDS011;44928;53.074;6.646;2023-03-01T03:11:35;40.03;;;11.30;;
59145;SDS011;44928;53.074;6.646;2023-03-01T03:14:02;47.08;;;11.50;;
59145;SDS011;44928;53.074;6.646;2023-03-01T03:16:28;60.70;;;11.65;;
59145;SDS011;44928;53.074;6.646;2023-03-01T03:18:54;80.00;;;10.60;;
59145;SDS011;44928;53.074;6.646;2023-03-01T03:21:30;32.60;;;8.02;;
59145;SDS011;44928;53.074;6.646;2023-03-01T03:23:56;28.13;;;9.68;;
59145;SDS011;44928;53.074;6.646;2023-03-01T03:26:22;26.10;;;10.73;;
59145;SDS011;44928;53.074;6.646;2023-03-01T03:28:48;15.60;;;9.73;;
59145;SDS011;44928;53.074;6.646;2023-03-01T03:31:14;16.15;;;10.48;;
59145;SDS011;44928;53.074;6.646;2023-03-01T03:33:40;15.85;;;10.68;;
59145;SDS011;44928;53.074;6.646;2023-03-01T03:36:06;15.40;;;10.45;;
59145;SDS011;44928;53.074;6.646;2023-03-01T03:38:38;16.50;;;11.23;;
59145;SDS011;44928;53.074;6.646;2023-03-01T03:41:06;15.80;;;10.73;;
59145;SDS011;44928;53.074;6.646;2023-03-01T03:43:33;15.57;;;10.00;;
59145;SDS011;44928;53.074;6.646;2023-03-01T03:46:01;15.90;;;10.80;;
59145;SDS011;44928;53.074;6.646;2023-03-01T03:48:32;15.48;;;10.40;;
59145;SDS011;44928;53.074;6.646;2023-03-01T03:50:59;14.30;;;9.40;;
59145;SDS011;44928;53.074;6.646;2023-03-01T03:53:25;17.27;;;9.35;;
59145;SDS011;44928;53.074;6.646;2023-03-01T03:55:53;16.35;;;10.00;;
59145;SDS011;44928;53.074;6.646;2023-03-01T03:58:20;12.57;;;8.20;;
59145;SDS011;44928;53.074;6.646;2023-03-01T04:00:48;12.30;;;8.32;;
59145;SDS011;44928;53.074;6.646;2023-03-01T04:03:16;14.07;;;8.57;;
59145;SDS011;44928;53.074;6.646;2023-03-01T04:05:43;14.55;;;8.85;;
59145;SDS011;44928;53.074;6.646;2023-03-01T04:08:10;12.90;;;8.43;;
59145;SDS011;44928;53.074;6.646;2023-03-01T04:10:37;14.10;;;8.88;;
59145;SDS011;44928;53.074;6.646;2023-03-01T04:13:11;14.40;;;8.88;;
59145;SDS011;44928;53.074;6.646;2023-03-01T04:15:39;13.30;;;8.60;;
59145;SDS011;44928;53.074;6.646;2023-03-01T04:18:05;13.80;;;8.70;;
59145;SDS011;44928;53.074;6.646;2023-03-01T04:20:32;13.40;;;8.93;;
59145;SDS011;44928;53.074;6.646;2023-03-01T04:28:30;14.27;;;8.93;;
59145;SDS011;44928;53.074;6.646;2023-03-01T04:31:12;13.88;;;9.48;;
59145;SDS011;44928;53.074;6.646;2023-03-01T04:33:45;15.52;;;10.05;;
59145;SDS011;44928;53.074;6.646;2023-03-01T04:36:13;15.60;;;9.88;;
59145;SDS011;44928;53.074;6.646;2023-03-01T04:38:41;15.85;;;10.52;;
59145;SDS011;44928;53.074;6.646;2023-03-01T04:41:08;15.65;;;9.98;;
59145;SDS011;44928;53.074;6.646;2023-03-01T04:43:36;16.70;;;10.70;;
59145;SDS011;44928;53.074;6.646;2023-03-01T04:46:06;16.42;;;10.63;;
59145;SDS011;44928;53.074;6.646;2023-03-01T04:48:39;16.15;;;10.50;;
59145;SDS011;44928;53.074;6.646;2023-03-01T04:51:06;14.60;;;9.70;;
59145;SDS011;44928;53.074;6.646;2023-03-01T04:53:33;15.73;;;10.43;;
59145;SDS011;44928;53.074;6.646;2023-03-01T04:56:02;16.13;;;10.63;;
59145;SDS011;44928;53.074;6.646;2023-03-01T04:58:28;16.88;;;10.57;;
59145;SDS011;44928;53.074;6.646;2023-03-01T05:00:54;15.20;;;10.10;;
59145;SDS011;44928;53.074;6.646;2023-03-01T05:03:20;18.20;;;10.98;;
59145;SDS011;44928;53.074;6.646;2023-03-01T05:05:47;16.27;;;10.48;;
59145;SDS011;44928;53.074;6.646;2023-03-01T05:08:14;16.55;;;10.90;;
59145;SDS011;44928;53.074;6.646;2023-03-01T05:10:50;16.98;;;11.07;;
59145;SDS011;44928;53.074;6.646;2023-03-01T05:13:18;15.60;;;10.20;;
59145;SDS011;44928;53.074;6.646;2023-03-01T05:15:48;15.33;;;9.97;;
59145;SDS011;44928;53.074;6.646;2023-03-01T05:18:22;17.05;;;11.25;;
59145;SDS011;44928;53.074;6.646;2023-03-01T05:20:54;16.40;;;11.30;;
59145;SDS011;44928;53.074;6.646;2023-03-01T05:23:24;17.35;;;11.45;;
59145;SDS011;44928;53.074;6.646;2023-03-01T05:25:50;17.73;;;10.88;;
59145;SDS011;44928;53.074;6.646;2023-03-01T05:28:17;17.90;;;11.82;;
59145;SDS011;44928;53.074;6.646;2023-03-01T05:30:45;18.50;;;11.75;;
59145;SDS011;44928;53.074;6.646;2023-03-01T05:33:11;18.52;;;12.23;;
59145;SDS011;44928;53.074;6.646;2023-03-01T05:35:40;18.55;;;11.88;;
59145;SDS011;44928;53.074;6.646;2023-03-01T05:38:08;17.13;;;11.73;;
59145;SDS011;44928;53.074;6.646;2023-03-01T05:40:38;18.83;;;12.30;;
59145;SDS011;44928;53.074;6.646;2023-03-01T05:43:04;17.13;;;10.98;;
59145;SDS011;44928;53.074;6.646;2023-03-01T05:45:32;17.80;;;11.20;;
59145;SDS011;44928;53.074;6.646;2023-03-01T05:47:58;17.40;;;10.70;;
59145;SDS011;44928;53.074;6.646;2023-03-01T05:50:25;17.63;;;12.05;;
59145;SDS011;44928;53.074;6.646;2023-03-01T05:53:35;17.38;;;11.48;;
59145;SDS011;44928;53.074;6.646;2023-03-01T05:58:13;17.45;;;10.98;;
59145;SDS011;44928;53.074;6.646;2023-03-01T06:00:43;17.33;;;11.40;;
59145;SDS011;44928;53.074;6.646;2023-03-01T06:03:10;15.90;;;10.85;;
59145;SDS011;44928;53.074;6.646;2023-03-01T06:05:37;17.98;;;10.65;;
59145;SDS011;44928;53.074;6.646;2023-03-01T06:08:04;16.90;;;11.20;;
59145;SDS011;44928;53.074;6.646;2023-03-01T06:10:30;16.48;;;10.55;;
59145;SDS011;44928;53.074;6.646;2023-03-01T06:12:56;18.27;;;12.02;;
59145;SDS011;44928;53.074;6.646;2023-03-01T06:15:23;16.92;;;11.07;;
59145;SDS011;44928;53.074;6.646;2023-03-01T06:17:50;19.77;;;12.05;;
59145;SDS011;44928;53.074;6.646;2023-03-01T06:20:20;15.57;;;10.20;;
59145;SDS011;44928;53.074;6.646;2023-03-01T06:22:47;17.30;;;11.52;;
59145;SDS011;44928;53.074;6.646;2023-03-01T06:25:15;18.02;;;11.15;;
59145;SDS011;44928;53.074;6.646;2023-03-01T06:27:45;17.55;;;11.02;;
59145;SDS011;44928;53.074;6.646;2023-03-01T06:30:12;17.27;;;10.98;;
59145;SDS011;44928;53.074;6.646;2023-03-01T06:32:39;15.13;;;10.00;;
59145;SDS011;44928;53.074;6.646;2023-03-01T06:35:07;15.82;;;10.40;;
59145;SDS011;44928;53.074;6.646;2023-03-01T06:37:34;16.67;;;11.07;;
59145;SDS011;44928;53.074;6.646;2023-03-01T06:40:00;16.48;;;10.20;;
59145;SDS011;44928;53.074;6.646;2023-03-01T06:42:35;17.30;;;10.77;;
59145;SDS011;44928;53.074;6.646;2023-03-01T06:45:02;16.38;;;10.98;;
59145;SDS011;44928;53.074;6.646;2023-03-01T06:47:29;16.88;;;10.50;;
59145;SDS011;44928;53.074;6.646;2023-03-01T06:49:55;16.73;;;10.93;;
59145;SDS011;44928;53.074;6.646;2023-03-01T06:52:21;18.77;;;11.23;;
59145;SDS011;44928;53.074;6.646;2023-03-01T06:54:46;15.15;;;9.40;;
59145;SDS011;44928;53.074;6.646;2023-03-01T06:57:12;19.38;;;10.55;;
59145;SDS011;44928;53.074;6.646;2023-03-01T06:59:38;15.63;;;10.43;;
59145;SDS011;44928;53.074;6.646;2023-03-01T07:02:04;16.55;;;10.20;;
59145;SDS011;44928;53.074;6.646;2023-03-01T07:04:29;15.25;;;9.82;;
59145;SDS011;44928;53.074;6.646;2023-03-01T07:06:55;16.38;;;10.32;;
59145;SDS011;44928;53.074;6.646;2023-03-01T07:09:24;15.23;;;9.80;;
59145;SDS011;44928;53.074;6.646;2023-03-01T07:11:50;15.75;;;9.93;;
59145;SDS011;44928;53.074;6.646;2023-03-01T07:14:16;15.75;;;9.23;;
59145;SDS011;44928;53.074;6.646;2023-03-01T07:16:42;13.63;;;9.27;;
59145;SDS011;44928;53.074;6.646;2023-03-01T07:19:08;13.18;;;8.43;;
59145;SDS011;44928;53.074;6.646;2023-03-01T07:21:33;12.05;;;8.23;;
59145;SDS011;44928;53.074;6.646;2023-03-01T07:23:59;16.08;;;9.73;;
59145;SDS011;44928;53.074;6.646;2023-03-01T07:26:25;15.18;;;9.82;;
59145;SDS011;44928;53.074;6.646;2023-03-01T07:28:51;13.43;;;8.65;;
59145;SDS011;44928;53.074;6.646;2023-03-01T07:31:16;12.38;;;7.75;;
59145;SDS011;44928;53.074;6.646;2023-03-01T07:33:42;13.73;;;8.70;;
59145;SDS011;44928;53.074;6.646;2023-03-01T07:36:08;14.32;;;9.07;;
59145;SDS011;44928;53.074;6.646;2023-03-01T07:38:34;14.95;;;9.52;;
59145;SDS011;44928;53.074;6.646;2023-03-01T07:41:01;14.07;;;9.73;;
59145;SDS011;44928;53.074;6.646;2023-03-01T07:43:28;14.18;;;9.13;;
59145;SDS011;44928;53.074;6.646;2023-03-01T07:45:57;13.43;;;8.68;;
59145;SDS011;44928;53.074;6.646;2023-03-01T07:48:25;14.30;;;9.05;;
59145;SDS011;44928;53.074;6.646;2023-03-01T07:50:51;14.13;;;8.95;;
59145;SDS011;44928;53.074;6.646;2023-03-01T07:53:16;13.98;;;9.13;;
59145;SDS011;44928;53.074;6.646;2023-03-01T07:55:42;13.60;;;8.80;;
59145;SDS011;44928;53.074;6.646;2023-03-01T07:58:08;13.93;;;9.55;;
59145;SDS011;44928;53.074;6.646;2023-03-01T08:00:34;15.93;;;10.23;;
59145;SDS011;44928;53.074;6.646;2023-03-01T08:03:00;15.15;;;9.45;;
59145;SDS011;44928;53.074;6.646;2023-03-01T08:05:26;17.25;;;11.18;;
59145;SDS011;44928;53.074;6.646;2023-03-01T08:07:53;16.98;;;10.77;;
59145;SDS011;44928;53.074;6.646;2023-03-01T08:10:19;16.38;;;11.02;;
59145;SDS011;44928;53.074;6.646;2023-03-01T08:12:45;18.23;;;11.23;;
59145;SDS011;44928;53.074;6.646;2023-03-01T08:15:11;16.13;;;11.23;;
59145;SDS011;44928;53.074;6.646;2023-03-01T08:17:37;16.50;;;11.13;;
59145;SDS011;44928;53.074;6.646;2023-03-01T08:20:03;17.88;;;11.73;;
59145;SDS011;44928;53.074;6.646;2023-03-01T08:22:32;18.40;;;12.25;;
59145;SDS011;44928;53.074;6.646;2023-03-01T08:24:58;17.58;;;12.57;;
59145;SDS011;44928;53.074;6.646;2023-03-01T08:27:24;16.80;;;11.63;;
59145;SDS011;44928;53.074;6.646;2023-03-01T08:29:50;18.08;;;12.82;;
59145;SDS011;44928;53.074;6.646;2023-03-01T08:32:15;18.67;;;12.77;;
59145;SDS011;44928;53.074;6.646;2023-03-01T08:34:41;17.63;;;12.30;;
59145;SDS011;44928;53.074;6.646;2023-03-01T08:37:07;20.42;;;13.88;;
59145;SDS011;44928;53.074;6.646;2023-03-01T08:39:32;20.67;;;14.40;;
59145;SDS011;44928;53.074;6.646;2023-03-01T08:41:58;21.42;;;13.45;;
59145;SDS011;44928;53.074;6.646;2023-03-01T08:44:24;23.60;;;14.85;;
59145;SDS011;44928;53.074;6.646;2023-03-01T08:46:50;21.60;;;14.38;;
59145;SDS011;44928;53.074;6.646;2023-03-01T08:49:18;20.10;;;14.18;;
59145;SDS011;44928;53.074;6.646;2023-03-01T08:51:45;23.35;;;15.50;;
59145;SDS011;44928;53.074;6.646;2023-03-01T08:54:12;23.85;;;14.90;;
59145;SDS011;44928;53.074;6.646;2023-03-01T08:56:40;26.02;;;16.77;;
59145;SDS011;44928;53.074;6.646;2023-03-01T08:59:06;27.83;;;17.75;;
59145;SDS011;44928;53.074;6.646;2023-03-01T09:01:32;27.67;;;17.85;;
59145;SDS011;44928;53.074;6.646;2023-03-01T09:03:58;27.83;;;17.67;;
59145;SDS011;44928;53.074;6.646;2023-03-01T09:06:25;31.02;;;19.70;;
59145;SDS011;44928;53.074;6.646;2023-03-01T09:08:50;29.50;;;18.95;;
59145;SDS011;44928;53.074;6.646;2023-03-01T09:11:17;29.77;;;19.08;;
59145;SDS011;44928;53.074;6.646;2023-03-01T09:13:46;33.25;;;20.20;;
59145;SDS011;44928;53.074;6.646;2023-03-01T09:16:13;31.90;;;20.38;;
59145;SDS011;44928;53.074;6.646;2023-03-01T09:18:41;32.22;;;20.42;;
59145;SDS011;44928;53.074;6.646;2023-03-01T09:21:08;34.95;;;20.23;;
59145;SDS011;44928;53.074;6.646;2023-03-01T09:23:37;34.83;;;20.92;;
59145;SDS011;44928;53.074;6.646;2023-03-01T09:26:07;32.90;;;19.98;;
59145;SDS011;44928;53.074;6.646;2023-03-01T09:28:37;35.10;;;21.73;;
59145;SDS011;44928;53.074;6.646;2023-03-01T09:31:04;36.85;;;21.08;;
59145;SDS011;44928;53.074;6.646;2023-03-01T09:33:31;35.35;;;22.00;;
59145;SDS011;44928;53.074;6.646;2023-03-01T09:36:02;33.20;;;20.83;;
59145;SDS011;44928;53.074;6.646;2023-03-01T09:38:29;35.38;;;21.25;;
59145;SDS011;44928;53.074;6.646;2023-03-01T09:40:56;36.95;;;22.40;;
59145;SDS011;44928;53.074;6.646;2023-03-01T09:43:42;35.88;;;22.33;;
59145;SDS011;44928;53.074;6.646;2023-03-01T09:46:13;35.83;;;21.67;;
59145;SDS011;44928;53.074;6.646;2023-03-01T09:51:25;38.20;;;21.02;;
59145;SDS011;44928;53.074;6.646;2023-03-01T09:56:24;35.72;;;20.23;;
59145;SDS011;44928;53.074;6.646;2023-03-01T09:58:55;38.35;;;20.65;;
59145;SDS011;44928;53.074;6.646;2023-03-01T10:01:32;31.63;;;18.23;;
59145;SDS011;44928;53.074;6.646;2023-03-01T10:09:53;37.35;;;22.88;;
59145;SDS011;44928;53.074;6.646;2023-03-01T10:12:20;33.83;;;21.25;;
59145;SDS011;44928;53.074;6.646;2023-03-01T10:22:41;32.67;;;19.95;;
59145;SDS011;44928;53.074;6.646;2023-03-01T10:25:08;32.08;;;20.52;;
59145;SDS011;44928;53.074;6.646;2023-03-01T10:27:53;28.42;;;19.05;;
59145;SDS011;44928;53.074;6.646;2023-03-01T10:30:40;31.67;;;20.13;;
59145;SDS011;44928;53.074;6.646;2023-03-01T10:33:20;32.30;;;20.98;;
59145;SDS011;44928;53.074;6.646;2023-03-01T10:36:06;33.58;;;21.67;;
59145;SDS011;44928;53.074;6.646;2023-03-01T10:38:47;29.48;;;20.38;;
59145;SDS011;44928;53.074;6.646;2023-03-01T10:41:22;33.80;;;21.45;;
59145;SDS011;44928;53.074;6.646;2023-03-01T10:43:50;31.50;;;20.65;;
59145;SDS011;44928;53.074;6.646;2023-03-01T10:46:24;31.33;;;21.10;;
59145;SDS011;44928;53.074;6.646;2023-03-01T10:49:34;32.72;;;21.23;;
59145;SDS011;44928;53.074;6.646;2023-03-01T10:54:30;29.92;;;20.50;;
59145;SDS011;44928;53.074;6.646;2023-03-01T10:57:01;29.33;;;19.15;;
59145;SDS011;44928;53.074;6.646;2023-03-01T10:59:30;29.00;;;19.50;;
59145;SDS011;44928;53.074;6.646;2023-03-01T11:02:03;26.92;;;17.92;;
59145;SDS011;44928;53.074;6.646;2023-03-01T11:07:51;24.88;;;15.13;;
59145;SDS011;44928;53.074;6.646;2023-03-01T11:10:19;22.08;;;14.68;;
59145;SDS011;44928;53.074;6.646;2023-03-01T11:13:06;24.67;;;15.70;;
59145;SDS011;44928;53.074;6.646;2023-03-01T11:15:33;24.05;;;16.90;;
59145;SDS011;44928;53.074;6.646;2023-03-01T11:17:58;24.45;;;16.52;;
59145;SDS011;44928;53.074;6.646;2023-03-01T11:20:27;21.77;;;15.48;;
59145;SDS011;44928;53.074;6.646;2023-03-01T11:23:18;19.42;;;14.07;;
59145;SDS011;44928;53.074;6.646;2023-03-01T11:25:56;20.30;;;13.13;;
59145;SDS011;44928;53.074;6.646;2023-03-01T11:28:25;18.20;;;11.73;;
59145;SDS011;44928;53.074;6.646;2023-03-01T11:30:58;16.02;;;10.82;;
59145;SDS011;44928;53.074;6.646;2023-03-01T11:38:52;15.32;;;9.40;;
59145;SDS011;44928;53.074;6.646;2023-03-01T11:41:20;16.10;;;9.93;;
59145;SDS011;44928;53.074;6.646;2023-03-01T11:43:59;17.10;;;10.02;;
59145;SDS011;44928;53.074;6.646;2023-03-01T12:16:31;16.50;;;10.35;;
59145;SDS011;44928;53.074;6.646;2023-03-01T12:21:55;16.45;;;11.05;;
59145;SDS011;44928;53.074;6.646;2023-03-01T12:30:29;19.60;;;11.93;;
59145;SDS011;44928;53.074;6.646;2023-03-01T12:38:08;16.55;;;10.60;;
59145;SDS011;44928;53.074;6.646;2023-03-01T12:40:53;18.60;;;11.45;;
59145;SDS011;44928;53.074;6.646;2023-03-01T12:44:02;16.80;;;11.52;;
59145;SDS011;44928;53.074;6.646;2023-03-01T12:49:47;16.70;;;11.13;;
59145;SDS011;44928;53.074;6.646;2023-03-01T12:52:46;17.00;;;11.35;;
59145;SDS011;44928;53.074;6.646;2023-03-01T12:58:08;18.77;;;11.68;;
59145;SDS011;44928;53.074;6.646;2023-03-01T13:06:47;19.95;;;12.55;;
59145;SDS011;44928;53.074;6.646;2023-03-01T13:09:36;18.90;;;12.32;;
59145;SDS011;44928;53.074;6.646;2023-03-01T13:15:24;17.83;;;12.80;;
59145;SDS011;44928;53.074;6.646;2023-03-01T13:25:59;18.30;;;12.80;;
59145;SDS011;44928;53.074;6.646;2023-03-01T13:30:57;17.15;;;12.77;;
59145;SDS011;44928;53.074;6.646;2023-03-01T13:35:52;17.95;;;13.20;;
59145;SDS011;44928;53.074;6.646;2023-03-01T13:43:43;16.85;;;12.10;;
59145;SDS011;44928;53.074;6.646;2023-03-01T13:46:20;18.92;;;13.60;;
59145;SDS011;44928;53.074;6.646;2023-03-01T13:48:57;18.67;;;14.02;;
59145;SDS011;44928;53.074;6.646;2023-03-01T13:51:24;17.33;;;12.30;;
59145;SDS011;44928;53.074;6.646;2023-03-01T13:53:53;16.65;;;12.02;;
59145;SDS011;44928;53.074;6.646;2023-03-01T13:56:24;16.92;;;12.43;;
59145;SDS011;44928;53.074;6.646;2023-03-01T14:01:21;18.10;;;11.82;;
59145;SDS011;44928;53.074;6.646;2023-03-01T14:03:52;18.02;;;12.73;;
59145;SDS011;44928;53.074;6.646;2023-03-01T14:06:23;17.50;;;12.27;;
59145;SDS011;44928;53.074;6.646;2023-03-01T14:08:52;17.98;;;12.27;;
59145;SDS011;44928;53.074;6.646;2023-03-01T14:16:54;17.50;;;11.90;;
59145;SDS011;44928;53.074;6.646;2023-03-01T14:19:36;17.25;;;11.93;;
59145;SDS011;44928;53.074;6.646;2023-03-01T14:24:59;17.00;;;11.48;;
59145;SDS011;44928;53.074;6.646;2023-03-01T14:27:38;17.42;;;11.90;;
59145;SDS011;44928;53.074;6.646;2023-03-01T14:30:20;16.08;;;11.35;;
59145;SDS011;44928;53.074;6.646;2023-03-01T14:32:52;16.92;;;12.00;;
59145;SDS011;44928;53.074;6.646;2023-03-01T14:35:33;16.07;;;11.90;;
59145;SDS011;44928;53.074;6.646;2023-03-01T14:38:00;17.80;;;11.75;;
59145;SDS011;44928;53.074;6.646;2023-03-01T14:40:28;15.75;;;11.10;;
59145;SDS011;44928;53.074;6.646;2023-03-01T14:43:00;16.05;;;11.30;;
59145;SDS011;44928;53.074;6.646;2023-03-01T14:45:33;17.70;;;11.77;;
59145;SDS011;44928;53.074;6.646;2023-03-01T14:48:00;16.20;;;11.80;;
59145;SDS011;44928;53.074;6.646;2023-03-01T14:50:30;17.02;;;11.73;;
59145;SDS011;44928;53.074;6.646;2023-03-01T14:53:02;17.35;;;12.07;;
59145;SDS011;44928;53.074;6.646;2023-03-01T14:55:36;18.00;;;12.80;;
59145;SDS011;44928;53.074;6.646;2023-03-01T14:58:08;17.38;;;12.30;;
59145;SDS011;44928;53.074;6.646;2023-03-01T15:00:37;18.27;;;12.68;;
59145;SDS011;44928;53.074;6.646;2023-03-01T15:03:07;17.92;;;12.35;;
59145;SDS011;44928;53.074;6.646;2023-03-01T15:05:38;18.40;;;13.45;;
59145;SDS011;44928;53.074;6.646;2023-03-01T15:08:06;19.05;;;13.65;;
59145;SDS011;44928;53.074;6.646;2023-03-01T15:10:33;17.88;;;13.05;;
59145;SDS011;44928;53.074;6.646;2023-03-01T15:13:19;20.38;;;14.32;;
59145;SDS011;44928;53.074;6.646;2023-03-01T15:15:48;20.80;;;13.88;;
59145;SDS011;44928;53.074;6.646;2023-03-01T15:18:20;19.88;;;14.32;;
59145;SDS011;44928;53.074;6.646;2023-03-01T15:20:50;20.08;;;14.32;;
59145;SDS011;44928;53.074;6.646;2023-03-01T15:23:22;18.83;;;13.82;;
59145;SDS011;44928;53.074;6.646;2023-03-01T15:25:52;21.27;;;14.70;;
59145;SDS011;44928;53.074;6.646;2023-03-01T15:28:33;19.00;;;13.80;;
59145;SDS011;44928;53.074;6.646;2023-03-01T15:31:22;19.25;;;13.32;;
59145;SDS011;44928;53.074;6.646;2023-03-01T15:39:00;17.17;;;12.32;;
59145;SDS011;44928;53.074;6.646;2023-03-01T15:41:27;18.38;;;13.05;;
59145;SDS011;44928;53.074;6.646;2023-03-01T15:43:59;18.02;;;13.40;;
59145;SDS011;44928;53.074;6.646;2023-03-01T15:46:27;17.42;;;13.02;;
59145;SDS011;44928;53.074;6.646;2023-03-01T15:48:57;20.60;;;15.55;;
59145;SDS011;44928;53.074;6.646;2023-03-01T15:51:30;17.50;;;12.85;;
59145;SDS011;44928;53.074;6.646;2023-03-01T15:54:05;17.85;;;13.52;;
59145;SDS011;44928;53.074;6.646;2023-03-01T15:56:43;18.83;;;13.68;;
59145;SDS011;44928;53.074;6.646;2023-03-01T15:59:10;18.65;;;13.30;;
59145;SDS011;44928;53.074;6.646;2023-03-01T16:01:38;17.40;;;12.77;;
59145;SDS011;44928;53.074;6.646;2023-03-01T16:04:04;18.83;;;13.77;;
59145;SDS011;44928;53.074;6.646;2023-03-01T16:06:30;18.80;;;13.15;;
59145;SDS011;44928;53.074;6.646;2023-03-01T16:08:55;17.02;;;13.02;;
59145;SDS011;44928;53.074;6.646;2023-03-01T16:11:21;18.50;;;13.50;;
59145;SDS011;44928;53.074;6.646;2023-03-01T16:13:47;19.08;;;13.32;;
59145;SDS011;44928;53.074;6.646;2023-03-01T16:16:14;18.67;;;13.48;;
59145;SDS011;44928;53.074;6.646;2023-03-01T16:18:45;17.30;;;12.82;;
59145;SDS011;44928;53.074;6.646;2023-03-01T16:21:16;18.35;;;13.60;;
59145;SDS011;44928;53.074;6.646;2023-03-01T16:23:46;20.63;;;14.80;;
59145;SDS011;44928;53.074;6.646;2023-03-01T16:26:12;19.42;;;14.35;;
59145;SDS011;44928;53.074;6.646;2023-03-01T16:28:39;18.98;;;13.93;;
59145;SDS011;44928;53.074;6.646;2023-03-01T16:31:06;19.33;;;14.18;;
59145;SDS011;44928;53.074;6.646;2023-03-01T16:33:32;18.40;;;12.80;;
59145;SDS011;44928;53.074;6.646;2023-03-01T16:35:59;20.25;;;14.55;;
59145;SDS011;44928;53.074;6.646;2023-03-01T16:38:35;18.83;;;14.02;;
59145;SDS011;44928;53.074;6.646;2023-03-01T16:41:01;20.27;;;14.43;;
59145;SDS011;44928;53.074;6.646;2023-03-01T16:43:27;19.02;;;14.20;;
59145;SDS011;44928;53.074;6.646;2023-03-01T16:45:54;17.08;;;13.38;;
59145;SDS011;44928;53.074;6.646;2023-03-01T16:48:20;18.73;;;13.95;;
59145;SDS011;44928;53.074;6.646;2023-03-01T16:50:54;19.98;;;14.50;;
59145;SDS011;44928;53.074;6.646;2023-03-01T16:53:21;19.75;;;13.43;;
59145;SDS011;44928;53.074;6.646;2023-03-01T16:55:52;17.55;;;12.93;;
59145;SDS011;44928;53.074;6.646;2023-03-01T16:58:19;18.17;;;13.68;;
59145;SDS011;44928;53.074;6.646;2023-03-01T17:00:44;18.08;;;12.48;;
59145;SDS011;44928;53.074;6.646;2023-03-01T17:03:10;20.60;;;14.10;;
59145;SDS011;44928;53.074;6.646;2023-03-01T17:05:39;18.77;;;13.23;;